sensor_id;sensor_type;location;lat;lon;timestamp;P1;durP1;ratioP1;P2;durP2;ratioP2
65315;SDS011;51920;53.952;10.292;2023-01-08T00:01:20;4.63;;;3.40;;
65315;SDS011;51920;53.952;10.292;2023-01-08T00:03:46;4.13;;;3.50;;
65315;SDS011;51920;53.952;10.292;2023-01-08T00:06:12;3.90;;;3.00;;
65315;SDS011;51920;53.952;10.292;2023-01-08T00:08:39;4.60;;;3.67;;
65315;SDS011;51920;53.952;10.292;2023-01-08T00:11:04;4.17;;;3.30;;
65315;SDS011;51920;53.952;10.292;2023-01-08T00:13:30;5.20;;;3.53;;
65315;SDS011;51920;53.952;10.292;2023-01-08T00:15:55;4.40;;;3.40;;
65315;SDS011;51920;53.952;10.292;2023-01-08T00:18:21;7.30;;;5.00;;
65315;SDS011;51920;53.952;10.292;2023-01-08T00:20:48;4.97;;;3.63;;
65315;SDS011;51920;53.952;10.292;2023-01-08T00:23:14;3.90;;;3.30;;
65315;SDS011;51920;53.952;10.292;2023-01-08T00:25:40;4.20;;;3.40;;
65315;SDS011;51920;53.952;10.292;2023-01-08T00:28:06;4.27;;;3.30;;
65315;SDS011;51920;53.952;10.292;2023-01-08T00:30:32;4.10;;;3.47;;
65315;SDS011;51920;53.952;10.292;2023-01-08T00:32:57;4.47;;;3.30;;
65315;SDS011;51920;53.952;10.292;2023-01-08T00:35:22;4.20;;;3.10;;
65315;SDS011;51920;53.952;10.292;2023-01-08T00:37:48;4.50;;;3.30;;
65315;SDS011;51920;53.952;10.292;2023-01-08T00:40:13;4.33;;;3.33;;
65315;SDS011;51920;53.952;10.292;2023-01-08T00:42:39;4.23;;;3.23;;
65315;SDS011;51920;53.952;10.292;2023-01-08T00:45:04;4.65;;;3.20;;
65315;SDS011;51920;53.952;10.292;2023-01-08T00:47:30;4.83;;;3.20;;
65315;SDS011;51920;53.952;10.292;2023-01-08T00:49:56;4.63;;;3.38;;
65315;SDS011;51920;53.952;10.292;2023-01-08T00:52:21;5.30;;;3.30;;
65315;SDS011;51920;53.952;10.292;2023-01-08T00:54:46;4.97;;;3.53;;
65315;SDS011;51920;53.952;10.292;2023-01-08T00:57:12;4.57;;;3.50;;
65315;SDS011;51920;53.952;10.292;2023-01-08T00:59:37;4.13;;;3.40;;
65315;SDS011;51920;53.952;10.292;2023-01-08T01:02:02;4.40;;;3.53;;
65315;SDS011;51920;53.952;10.292;2023-01-08T01:04:28;4.10;;;3.53;;
65315;SDS011;51920;53.952;10.292;2023-01-08T01:06:53;4.38;;;3.40;;
65315;SDS011;51920;53.952;10.292;2023-01-08T01:09:18;4.23;;;3.50;;
65315;SDS011;51920;53.952;10.292;2023-01-08T01:11:44;5.40;;;4.00;;
65315;SDS011;51920;53.952;10.292;2023-01-08T01:14:09;4.50;;;3.70;;
65315;SDS011;51920;53.952;10.292;2023-01-08T01:16:35;3.97;;;3.50;;
65315;SDS011;51920;53.952;10.292;2023-01-08T01:19:00;4.20;;;3.33;;
65315;SDS011;51920;53.952;10.292;2023-01-08T01:21:27;4.90;;;3.80;;
65315;SDS011;51920;53.952;10.292;2023-01-08T01:23:57;5.05;;;3.50;;
65315;SDS011;51920;53.952;10.292;2023-01-08T01:26:25;4.40;;;3.70;;
65315;SDS011;51920;53.952;10.292;2023-01-08T01:28:51;4.63;;;3.50;;
65315;SDS011;51920;53.952;10.292;2023-01-08T01:31:18;4.80;;;3.67;;
65315;SDS011;51920;53.952;10.292;2023-01-08T01:33:44;7.87;;;3.50;;
65315;SDS011;51920;53.952;10.292;2023-01-08T01:36:11;4.50;;;3.38;;
65315;SDS011;51920;53.952;10.292;2023-01-08T01:38:37;5.18;;;3.70;;
65315;SDS011;51920;53.952;10.292;2023-01-08T01:41:06;4.80;;;3.90;;
65315;SDS011;51920;53.952;10.292;2023-01-08T01:43:35;6.40;;;4.13;;
65315;SDS011;51920;53.952;10.292;2023-01-08T01:46:03;4.57;;;3.60;;
65315;SDS011;51920;53.952;10.292;2023-01-08T01:48:40;4.70;;;3.67;;
65315;SDS011;51920;53.952;10.292;2023-01-08T01:51:06;5.53;;;3.80;;
65315;SDS011;51920;53.952;10.292;2023-01-08T01:53:32;4.97;;;3.70;;
65315;SDS011;51920;53.952;10.292;2023-01-08T01:56:00;6.35;;;4.45;;
65315;SDS011;51920;53.952;10.292;2023-01-08T01:58:28;4.30;;;3.55;;
65315;SDS011;51920;53.952;10.292;2023-01-08T02:00:56;5.20;;;3.90;;
65315;SDS011;51920;53.952;10.292;2023-01-08T02:03:24;4.83;;;3.53;;
65315;SDS011;51920;53.952;10.292;2023-01-08T02:14:10;5.70;;;4.03;;
65315;SDS011;51920;53.952;10.292;2023-01-08T02:16:45;5.53;;;3.60;;
65315;SDS011;51920;53.952;10.292;2023-01-08T02:19:23;4.60;;;3.60;;
65315;SDS011;51920;53.952;10.292;2023-01-08T02:27:31;5.03;;;3.90;;
65315;SDS011;51920;53.952;10.292;2023-01-08T02:29:59;6.43;;;3.90;;
65315;SDS011;51920;53.952;10.292;2023-01-08T02:32:26;5.13;;;3.60;;
65315;SDS011;51920;53.952;10.292;2023-01-08T02:34:56;5.10;;;4.20;;
65315;SDS011;51920;53.952;10.292;2023-01-08T02:37:22;6.13;;;4.20;;
65315;SDS011;51920;53.952;10.292;2023-01-08T02:39:50;5.47;;;4.20;;
65315;SDS011;51920;53.952;10.292;2023-01-08T02:42:35;5.37;;;4.27;;
65315;SDS011;51920;53.952;10.292;2023-01-08T02:47:53;4.63;;;3.85;;
65315;SDS011;51920;53.952;10.292;2023-01-08T02:50:28;4.68;;;4.00;;
65315;SDS011;51920;53.952;10.292;2023-01-08T02:55:27;5.60;;;3.83;;
65315;SDS011;51920;53.952;10.292;2023-01-08T02:57:54;4.70;;;3.47;;
65315;SDS011;51920;53.952;10.292;2023-01-08T03:00:21;5.13;;;4.25;;
65315;SDS011;51920;53.952;10.292;2023-01-08T03:02:48;5.43;;;4.00;;
65315;SDS011;51920;53.952;10.292;2023-01-08T03:05:19;5.05;;;3.92;;
65315;SDS011;51920;53.952;10.292;2023-01-08T03:07:48;6.47;;;4.00;;
65315;SDS011;51920;53.952;10.292;2023-01-08T03:10:13;4.90;;;3.53;;
65315;SDS011;51920;53.952;10.292;2023-01-08T03:12:53;5.55;;;4.10;;
65315;SDS011;51920;53.952;10.292;2023-01-08T03:15:23;4.77;;;3.57;;
65315;SDS011;51920;53.952;10.292;2023-01-08T03:17:54;6.63;;;4.53;;
65315;SDS011;51920;53.952;10.292;2023-01-08T03:20:26;6.10;;;4.15;;
65315;SDS011;51920;53.952;10.292;2023-01-08T03:22:54;6.60;;;4.28;;
65315;SDS011;51920;53.952;10.292;2023-01-08T03:25:22;5.38;;;4.28;;
65315;SDS011;51920;53.952;10.292;2023-01-08T03:27:52;5.03;;;3.80;;
65315;SDS011;51920;53.952;10.292;2023-01-08T03:30:21;4.57;;;3.60;;
65315;SDS011;51920;53.952;10.292;2023-01-08T03:32:48;4.22;;;3.75;;
65315;SDS011;51920;53.952;10.292;2023-01-08T03:35:16;4.57;;;3.60;;
65315;SDS011;51920;53.952;10.292;2023-01-08T03:37:45;6.60;;;4.18;;
65315;SDS011;51920;53.952;10.292;2023-01-08T03:40:17;4.20;;;3.80;;
65315;SDS011;51920;53.952;10.292;2023-01-08T03:42:46;5.03;;;3.85;;
65315;SDS011;51920;53.952;10.292;2023-01-08T03:45:12;5.53;;;4.18;;
65315;SDS011;51920;53.952;10.292;2023-01-08T03:47:38;4.97;;;3.97;;
65315;SDS011;51920;53.952;10.292;2023-01-08T03:50:06;4.57;;;3.60;;
65315;SDS011;51920;53.952;10.292;2023-01-08T03:52:35;5.13;;;3.90;;
65315;SDS011;51920;53.952;10.292;2023-01-08T03:55:00;5.30;;;4.10;;
65315;SDS011;51920;53.952;10.292;2023-01-08T03:57:25;6.33;;;3.90;;
65315;SDS011;51920;53.952;10.292;2023-01-08T03:59:51;6.03;;;4.03;;
65315;SDS011;51920;53.952;10.292;2023-01-08T04:02:16;8.07;;;4.45;;
65315;SDS011;51920;53.952;10.292;2023-01-08T04:04:42;6.23;;;4.20;;
65315;SDS011;51920;53.952;10.292;2023-01-08T04:07:10;4.65;;;3.65;;
65315;SDS011;51920;53.952;10.292;2023-01-08T04:09:36;8.07;;;4.10;;
65315;SDS011;51920;53.952;10.292;2023-01-08T04:12:02;5.00;;;3.85;;
65315;SDS011;51920;53.952;10.292;2023-01-08T04:14:28;5.45;;;4.30;;
65315;SDS011;51920;53.952;10.292;2023-01-08T04:16:54;4.60;;;3.93;;
65315;SDS011;51920;53.952;10.292;2023-01-08T04:19:19;4.23;;;3.50;;
65315;SDS011;51920;53.952;10.292;2023-01-08T04:21:44;5.13;;;3.60;;
65315;SDS011;51920;53.952;10.292;2023-01-08T04:24:10;4.73;;;3.80;;
65315;SDS011;51920;53.952;10.292;2023-01-08T04:26:36;5.53;;;3.65;;
65315;SDS011;51920;53.952;10.292;2023-01-08T04:29:02;6.45;;;4.22;;
65315;SDS011;51920;53.952;10.292;2023-01-08T04:31:29;5.10;;;3.53;;
65315;SDS011;51920;53.952;10.292;2023-01-08T04:33:55;4.90;;;3.80;;
65315;SDS011;51920;53.952;10.292;2023-01-08T04:36:20;7.37;;;3.90;;
65315;SDS011;51920;53.952;10.292;2023-01-08T04:38:45;6.22;;;4.30;;
65315;SDS011;51920;53.952;10.292;2023-01-08T04:41:11;6.43;;;4.10;;
65315;SDS011;51920;53.952;10.292;2023-01-08T04:43:36;5.83;;;4.20;;
65315;SDS011;51920;53.952;10.292;2023-01-08T04:46:02;5.20;;;3.67;;
65315;SDS011;51920;53.952;10.292;2023-01-08T04:48:31;5.28;;;3.85;;
65315;SDS011;51920;53.952;10.292;2023-01-08T04:50:57;5.20;;;4.00;;
65315;SDS011;51920;53.952;10.292;2023-01-08T04:53:24;5.65;;;4.00;;
65315;SDS011;51920;53.952;10.292;2023-01-08T04:55:51;5.47;;;4.20;;
65315;SDS011;51920;53.952;10.292;2023-01-08T04:58:16;4.83;;;3.80;;
65315;SDS011;51920;53.952;10.292;2023-01-08T05:00:41;6.37;;;4.00;;
65315;SDS011;51920;53.952;10.292;2023-01-08T05:03:07;5.70;;;3.90;;
65315;SDS011;51920;53.952;10.292;2023-01-08T05:05:32;6.32;;;3.65;;
65315;SDS011;51920;53.952;10.292;2023-01-08T05:07:58;5.17;;;3.70;;
65315;SDS011;51920;53.952;10.292;2023-01-08T05:10:24;6.32;;;4.15;;
65315;SDS011;51920;53.952;10.292;2023-01-08T05:12:49;5.17;;;3.77;;
65315;SDS011;51920;53.952;10.292;2023-01-08T05:15:15;5.63;;;3.87;;
65315;SDS011;51920;53.952;10.292;2023-01-08T05:17:40;5.10;;;3.78;;
65315;SDS011;51920;53.952;10.292;2023-01-08T05:20:06;4.83;;;3.50;;
65315;SDS011;51920;53.952;10.292;2023-01-08T05:22:32;6.22;;;3.65;;
65315;SDS011;51920;53.952;10.292;2023-01-08T05:24:57;5.97;;;3.97;;
65315;SDS011;51920;53.952;10.292;2023-01-08T05:27:23;5.30;;;3.70;;
65315;SDS011;51920;53.952;10.292;2023-01-08T05:29:48;4.67;;;3.73;;
65315;SDS011;51920;53.952;10.292;2023-01-08T05:32:16;5.30;;;4.03;;
65315;SDS011;51920;53.952;10.292;2023-01-08T05:34:42;5.50;;;4.00;;
65315;SDS011;51920;53.952;10.292;2023-01-08T05:37:09;5.72;;;3.80;;
65315;SDS011;51920;53.952;10.292;2023-01-08T05:39:34;4.43;;;3.70;;
65315;SDS011;51920;53.952;10.292;2023-01-08T05:42:00;5.28;;;3.97;;
65315;SDS011;51920;53.952;10.292;2023-01-08T05:44:26;5.23;;;3.90;;
65315;SDS011;51920;53.952;10.292;2023-01-08T05:46:52;4.63;;;3.90;;
65315;SDS011;51920;53.952;10.292;2023-01-08T05:49:18;4.87;;;3.60;;
65315;SDS011;51920;53.952;10.292;2023-01-08T05:51:44;5.25;;;4.13;;
65315;SDS011;51920;53.952;10.292;2023-01-08T05:54:09;5.03;;;4.00;;
65315;SDS011;51920;53.952;10.292;2023-01-08T05:56:34;4.97;;;3.63;;
65315;SDS011;51920;53.952;10.292;2023-01-08T05:59:00;6.27;;;3.93;;
65315;SDS011;51920;53.952;10.292;2023-01-08T06:01:26;4.93;;;3.60;;
65315;SDS011;51920;53.952;10.292;2023-01-08T06:03:53;6.30;;;3.97;;
65315;SDS011;51920;53.952;10.292;2023-01-08T06:06:19;6.40;;;3.83;;
65315;SDS011;51920;53.952;10.292;2023-01-08T06:08:45;5.77;;;3.90;;
65315;SDS011;51920;53.952;10.292;2023-01-08T06:11:10;6.10;;;4.33;;
65315;SDS011;51920;53.952;10.292;2023-01-08T06:13:36;6.80;;;4.27;;
65315;SDS011;51920;53.952;10.292;2023-01-08T06:16:04;6.35;;;4.10;;
65315;SDS011;51920;53.952;10.292;2023-01-08T06:18:29;5.05;;;4.28;;
65315;SDS011;51920;53.952;10.292;2023-01-08T06:20:55;6.63;;;4.00;;
65315;SDS011;51920;53.952;10.292;2023-01-08T06:23:21;5.57;;;3.90;;
65315;SDS011;51920;53.952;10.292;2023-01-08T06:25:57;5.32;;;4.10;;
65315;SDS011;51920;53.952;10.292;2023-01-08T06:28:24;5.60;;;3.90;;
65315;SDS011;51920;53.952;10.292;2023-01-08T06:30:50;4.88;;;3.60;;
65315;SDS011;51920;53.952;10.292;2023-01-08T06:33:16;5.50;;;4.10;;
65315;SDS011;51920;53.952;10.292;2023-01-08T06:35:41;6.28;;;4.00;;
65315;SDS011;51920;53.952;10.292;2023-01-08T06:38:06;5.27;;;3.93;;
65315;SDS011;51920;53.952;10.292;2023-01-08T06:40:32;5.20;;;4.03;;
65315;SDS011;51920;53.952;10.292;2023-01-08T06:43:01;5.93;;;4.40;;
65315;SDS011;51920;53.952;10.292;2023-01-08T06:45:27;4.60;;;3.70;;
65315;SDS011;51920;53.952;10.292;2023-01-08T06:47:53;5.05;;;3.85;;
65315;SDS011;51920;53.952;10.292;2023-01-08T06:50:19;5.60;;;4.00;;
65315;SDS011;51920;53.952;10.292;2023-01-08T06:52:50;5.05;;;3.75;;
65315;SDS011;51920;53.952;10.292;2023-01-08T06:55:18;6.20;;;3.80;;
65315;SDS011;51920;53.952;10.292;2023-01-08T06:57:43;6.15;;;3.88;;
65315;SDS011;51920;53.952;10.292;2023-01-08T07:00:09;5.57;;;3.80;;
65315;SDS011;51920;53.952;10.292;2023-01-08T07:02:34;4.90;;;3.95;;
65315;SDS011;51920;53.952;10.292;2023-01-08T07:05:00;5.43;;;3.80;;
65315;SDS011;51920;53.952;10.292;2023-01-08T07:07:25;6.70;;;3.83;;
65315;SDS011;51920;53.952;10.292;2023-01-08T07:09:50;4.87;;;3.70;;
65315;SDS011;51920;53.952;10.292;2023-01-08T07:12:16;4.30;;;3.70;;
65315;SDS011;51920;53.952;10.292;2023-01-08T07:14:41;4.43;;;3.40;;
65315;SDS011;51920;53.952;10.292;2023-01-08T07:17:06;4.40;;;3.77;;
65315;SDS011;51920;53.952;10.292;2023-01-08T07:19:32;5.77;;;4.07;;
65315;SDS011;51920;53.952;10.292;2023-01-08T07:21:58;5.13;;;4.00;;
65315;SDS011;51920;53.952;10.292;2023-01-08T07:24:23;5.33;;;3.90;;
65315;SDS011;51920;53.952;10.292;2023-01-08T07:26:48;5.00;;;3.97;;
65315;SDS011;51920;53.952;10.292;2023-01-08T07:29:14;4.43;;;3.60;;
65315;SDS011;51920;53.952;10.292;2023-01-08T07:31:39;5.10;;;3.63;;
65315;SDS011;51920;53.952;10.292;2023-01-08T07:34:05;4.87;;;3.70;;
65315;SDS011;51920;53.952;10.292;2023-01-08T07:36:30;5.50;;;3.80;;
65315;SDS011;51920;53.952;10.292;2023-01-08T07:38:55;6.20;;;3.80;;
65315;SDS011;51920;53.952;10.292;2023-01-08T07:41:21;5.97;;;3.70;;
65315;SDS011;51920;53.952;10.292;2023-01-08T07:43:47;6.57;;;4.30;;
65315;SDS011;51920;53.952;10.292;2023-01-08T07:46:12;5.90;;;3.67;;
65315;SDS011;51920;53.952;10.292;2023-01-08T07:48:38;4.85;;;3.83;;
65315;SDS011;51920;53.952;10.292;2023-01-08T07:51:05;5.27;;;3.90;;
65315;SDS011;51920;53.952;10.292;2023-01-08T07:53:31;6.07;;;4.07;;
65315;SDS011;51920;53.952;10.292;2023-01-08T07:56:00;6.30;;;4.27;;
65315;SDS011;51920;53.952;10.292;2023-01-08T07:58:26;6.78;;;4.47;;
65315;SDS011;51920;53.952;10.292;2023-01-08T08:00:52;5.47;;;4.13;;
65315;SDS011;51920;53.952;10.292;2023-01-08T08:03:17;5.15;;;4.00;;
65315;SDS011;51920;53.952;10.292;2023-01-08T08:05:43;6.63;;;3.97;;
65315;SDS011;51920;53.952;10.292;2023-01-08T08:08:09;5.87;;;4.10;;
65315;SDS011;51920;53.952;10.292;2023-01-08T08:10:38;4.93;;;3.90;;
65315;SDS011;51920;53.952;10.292;2023-01-08T08:13:05;6.22;;;4.30;;
65315;SDS011;51920;53.952;10.292;2023-01-08T08:15:31;5.53;;;4.10;;
65315;SDS011;51920;53.952;10.292;2023-01-08T08:17:57;6.30;;;3.90;;
65315;SDS011;51920;53.952;10.292;2023-01-08T08:20:23;4.73;;;3.57;;
65315;SDS011;51920;53.952;10.292;2023-01-08T08:22:49;5.38;;;3.72;;
65315;SDS011;51920;53.952;10.292;2023-01-08T08:25:14;5.70;;;4.03;;
65315;SDS011;51920;53.952;10.292;2023-01-08T08:27:40;5.00;;;3.88;;
65315;SDS011;51920;53.952;10.292;2023-01-08T08:30:07;7.25;;;4.72;;
65315;SDS011;51920;53.952;10.292;2023-01-08T08:32:33;7.03;;;4.73;;
65315;SDS011;51920;53.952;10.292;2023-01-08T08:34:58;5.20;;;3.70;;
65315;SDS011;51920;53.952;10.292;2023-01-08T08:37:24;5.40;;;3.50;;
65315;SDS011;51920;53.952;10.292;2023-01-08T08:39:50;4.95;;;3.58;;
65315;SDS011;51920;53.952;10.292;2023-01-08T08:42:16;4.90;;;3.50;;
65315;SDS011;51920;53.952;10.292;2023-01-08T08:44:41;5.43;;;3.80;;
65315;SDS011;51920;53.952;10.292;2023-01-08T08:47:07;4.87;;;3.63;;
65315;SDS011;51920;53.952;10.292;2023-01-08T08:49:33;4.93;;;3.60;;
65315;SDS011;51920;53.952;10.292;2023-01-08T08:51:58;4.90;;;3.60;;
65315;SDS011;51920;53.952;10.292;2023-01-08T08:54:24;5.73;;;3.77;;
65315;SDS011;51920;53.952;10.292;2023-01-08T08:56:49;5.77;;;4.00;;
65315;SDS011;51920;53.952;10.292;2023-01-08T08:59:14;6.33;;;4.00;;
65315;SDS011;51920;53.952;10.292;2023-01-08T09:01:40;6.40;;;4.03;;
65315;SDS011;51920;53.952;10.292;2023-01-08T09:04:05;5.30;;;4.00;;
65315;SDS011;51920;53.952;10.292;2023-01-08T09:06:30;6.03;;;4.17;;
65315;SDS011;51920;53.952;10.292;2023-01-08T09:08:56;4.80;;;3.53;;
65315;SDS011;51920;53.952;10.292;2023-01-08T09:11:21;5.43;;;4.00;;
65315;SDS011;51920;53.952;10.292;2023-01-08T09:13:46;5.43;;;3.97;;
65315;SDS011;51920;53.952;10.292;2023-01-08T09:16:12;5.33;;;4.03;;
65315;SDS011;51920;53.952;10.292;2023-01-08T09:18:37;5.10;;;3.70;;
65315;SDS011;51920;53.952;10.292;2023-01-08T09:21:03;5.20;;;4.00;;
65315;SDS011;51920;53.952;10.292;2023-01-08T09:23:30;5.55;;;4.03;;
65315;SDS011;51920;53.952;10.292;2023-01-08T09:25:59;5.77;;;4.27;;
65315;SDS011;51920;53.952;10.292;2023-01-08T09:28:27;5.03;;;4.00;;
65315;SDS011;51920;53.952;10.292;2023-01-08T09:30:53;5.93;;;4.20;;
65315;SDS011;51920;53.952;10.292;2023-01-08T09:33:18;5.90;;;3.92;;
65315;SDS011;51920;53.952;10.292;2023-01-08T09:35:44;7.33;;;4.20;;
65315;SDS011;51920;53.952;10.292;2023-01-08T09:38:10;6.03;;;4.10;;
65315;SDS011;51920;53.952;10.292;2023-01-08T09:40:37;7.27;;;4.03;;
65315;SDS011;51920;53.952;10.292;2023-01-08T09:43:06;5.75;;;3.95;;
65315;SDS011;51920;53.952;10.292;2023-01-08T09:45:38;7.88;;;4.45;;
65315;SDS011;51920;53.952;10.292;2023-01-08T09:48:05;6.23;;;4.20;;
65315;SDS011;51920;53.952;10.292;2023-01-08T09:50:36;5.97;;;4.53;;
65315;SDS011;51920;53.952;10.292;2023-01-08T09:53:02;7.07;;;4.30;;
65315;SDS011;51920;53.952;10.292;2023-01-08T09:55:28;7.53;;;4.50;;
65315;SDS011;51920;53.952;10.292;2023-01-08T09:57:56;6.05;;;3.90;;
65315;SDS011;51920;53.952;10.292;2023-01-08T10:00:25;7.03;;;4.05;;
65315;SDS011;51920;53.952;10.292;2023-01-08T10:02:53;6.80;;;4.88;;
65315;SDS011;51920;53.952;10.292;2023-01-08T10:05:19;6.17;;;4.57;;
65315;SDS011;51920;53.952;10.292;2023-01-08T10:07:45;6.75;;;4.63;;
65315;SDS011;51920;53.952;10.292;2023-01-08T10:10:29;6.13;;;4.50;;
65315;SDS011;51920;53.952;10.292;2023-01-08T10:12:55;7.15;;;4.63;;
65315;SDS011;51920;53.952;10.292;2023-01-08T10:15:22;7.23;;;4.80;;
65315;SDS011;51920;53.952;10.292;2023-01-08T10:18:06;6.38;;;4.30;;
65315;SDS011;51920;53.952;10.292;2023-01-08T10:20:36;8.38;;;4.82;;
65315;SDS011;51920;53.952;10.292;2023-01-08T10:23:07;7.32;;;4.50;;
65315;SDS011;51920;53.952;10.292;2023-01-08T10:25:54;6.53;;;4.43;;
65315;SDS011;51920;53.952;10.292;2023-01-08T10:28:25;7.55;;;4.75;;
65315;SDS011;51920;53.952;10.292;2023-01-08T10:30:52;6.63;;;4.18;;
65315;SDS011;51920;53.952;10.292;2023-01-08T10:33:23;7.10;;;4.20;;
65315;SDS011;51920;53.952;10.292;2023-01-08T10:35:51;6.95;;;4.60;;
65315;SDS011;51920;53.952;10.292;2023-01-08T10:41:24;5.95;;;4.15;;
65315;SDS011;51920;53.952;10.292;2023-01-08T10:43:55;6.35;;;4.35;;
65315;SDS011;51920;53.952;10.292;2023-01-08T10:46:45;5.80;;;4.28;;
65315;SDS011;51920;53.952;10.292;2023-01-08T10:51:56;6.87;;;4.00;;
65315;SDS011;51920;53.952;10.292;2023-01-08T10:54:32;5.35;;;4.00;;
65315;SDS011;51920;53.952;10.292;2023-01-08T10:57:00;8.68;;;5.50;;
65315;SDS011;51920;53.952;10.292;2023-01-08T10:59:26;6.07;;;4.00;;
65315;SDS011;51920;53.952;10.292;2023-01-08T11:01:53;5.70;;;3.60;;
65315;SDS011;51920;53.952;10.292;2023-01-08T11:04:32;5.68;;;4.15;;
65315;SDS011;51920;53.952;10.292;2023-01-08T11:07:00;6.13;;;3.78;;
65315;SDS011;51920;53.952;10.292;2023-01-08T11:09:28;5.67;;;3.50;;
65315;SDS011;51920;53.952;10.292;2023-01-08T11:11:56;5.43;;;3.60;;
65315;SDS011;51920;53.952;10.292;2023-01-08T11:14:27;9.82;;;5.70;;
65315;SDS011;51920;53.952;10.292;2023-01-08T11:16:56;5.68;;;4.30;;
65315;SDS011;51920;53.952;10.292;2023-01-08T11:19:26;5.63;;;3.88;;
65315;SDS011;51920;53.952;10.292;2023-01-08T11:21:58;5.50;;;3.73;;
65315;SDS011;51920;53.952;10.292;2023-01-08T11:24:29;6.85;;;3.70;;
65315;SDS011;51920;53.952;10.292;2023-01-08T11:30:04;5.25;;;3.47;;
65315;SDS011;51920;53.952;10.292;2023-01-08T11:32:36;7.35;;;3.85;;
65315;SDS011;51920;53.952;10.292;2023-01-08T11:35:09;4.53;;;3.40;;
65315;SDS011;51920;53.952;10.292;2023-01-08T11:37:40;5.28;;;3.60;;
65315;SDS011;51920;53.952;10.292;2023-01-08T11:40:13;6.03;;;3.92;;
65315;SDS011;51920;53.952;10.292;2023-01-08T11:48:08;4.80;;;3.37;;
65315;SDS011;51920;53.952;10.292;2023-01-08T11:56:41;4.22;;;3.00;;
65315;SDS011;51920;53.952;10.292;2023-01-08T11:59:18;4.28;;;3.17;;
65315;SDS011;51920;53.952;10.292;2023-01-08T12:02:02;4.77;;;3.30;;
65315;SDS011;51920;53.952;10.292;2023-01-08T12:10:32;3.92;;;2.75;;
65315;SDS011;51920;53.952;10.292;2023-01-08T12:29:45;3.83;;;2.80;;
65315;SDS011;51920;53.952;10.292;2023-01-08T12:32:17;3.72;;;2.80;;
65315;SDS011;51920;53.952;10.292;2023-01-08T12:37:40;3.90;;;2.70;;
65315;SDS011;51920;53.952;10.292;2023-01-08T12:40:19;5.88;;;3.65;;
65315;SDS011;51920;53.952;10.292;2023-01-08T12:42:47;3.67;;;2.67;;
65315;SDS011;51920;53.952;10.292;2023-01-08T12:45:25;4.13;;;2.70;;
65315;SDS011;51920;53.952;10.292;2023-01-08T12:47:58;3.47;;;2.83;;
65315;SDS011;51920;53.952;10.292;2023-01-08T12:53:48;5.50;;;3.22;;
65315;SDS011;51920;53.952;10.292;2023-01-08T12:56:09;3.97;;;2.70;;
65315;SDS011;51920;53.952;10.292;2023-01-08T13:01:41;3.53;;;3.10;;
65315;SDS011;51920;53.952;10.292;2023-01-08T13:04:11;3.47;;;2.90;;
65315;SDS011;51920;53.952;10.292;2023-01-08T13:06:37;3.85;;;2.90;;
65315;SDS011;51920;53.952;10.292;2023-01-08T13:09:17;4.40;;;2.90;;
65315;SDS011;51920;53.952;10.292;2023-01-08T13:11:50;4.38;;;3.10;;
65315;SDS011;51920;53.952;10.292;2023-01-08T13:14:16;4.35;;;2.90;;
65315;SDS011;51920;53.952;10.292;2023-01-08T13:16:43;3.73;;;2.80;;
65315;SDS011;51920;53.952;10.292;2023-01-08T13:19:26;3.00;;;2.70;;
65315;SDS011;51920;53.952;10.292;2023-01-08T13:21:54;3.72;;;2.88;;
65315;SDS011;51920;53.952;10.292;2023-01-08T13:24:27;2.95;;;2.60;;
65315;SDS011;51920;53.952;10.292;2023-01-08T13:27:09;4.47;;;2.67;;
65315;SDS011;51920;53.952;10.292;2023-01-08T13:29:36;3.83;;;2.40;;
65315;SDS011;51920;53.952;10.292;2023-01-08T13:35:18;2.88;;;2.30;;
65315;SDS011;51920;53.952;10.292;2023-01-08T13:37:47;4.18;;;2.53;;
65315;SDS011;51920;53.952;10.292;2023-01-08T13:46:03;2.85;;;2.10;;
65315;SDS011;51920;53.952;10.292;2023-01-08T13:48:34;4.57;;;2.65;;
65315;SDS011;51920;53.952;10.292;2023-01-08T13:51:27;2.92;;;2.20;;
65315;SDS011;51920;53.952;10.292;2023-01-08T13:53:54;4.82;;;2.08;;
65315;SDS011;51920;53.952;10.292;2023-01-08T13:56:19;2.20;;;1.90;;
65315;SDS011;51920;53.952;10.292;2023-01-08T13:58:45;2.97;;;2.33;;
65315;SDS011;51920;53.952;10.292;2023-01-08T14:01:16;4.88;;;2.92;;
65315;SDS011;51920;53.952;10.292;2023-01-08T14:03:46;2.70;;;2.00;;
65315;SDS011;51920;53.952;10.292;2023-01-08T14:08:55;3.30;;;2.20;;
65315;SDS011;51920;53.952;10.292;2023-01-08T14:11:24;2.60;;;1.90;;
65315;SDS011;51920;53.952;10.292;2023-01-08T14:13:54;3.08;;;2.20;;
65315;SDS011;51920;53.952;10.292;2023-01-08T14:16:20;4.00;;;2.10;;
65315;SDS011;51920;53.952;10.292;2023-01-08T14:18:46;3.70;;;2.13;;
65315;SDS011;51920;53.952;10.292;2023-01-08T14:21:12;2.08;;;1.88;;
65315;SDS011;51920;53.952;10.292;2023-01-08T14:23:40;5.03;;;2.25;;
65315;SDS011;51920;53.952;10.292;2023-01-08T14:26:11;2.33;;;2.10;;
65315;SDS011;51920;53.952;10.292;2023-01-08T14:28:51;3.03;;;2.05;;
65315;SDS011;51920;53.952;10.292;2023-01-08T14:31:21;3.17;;;2.10;;
65315;SDS011;51920;53.952;10.292;2023-01-08T14:33:51;2.45;;;2.00;;
65315;SDS011;51920;53.952;10.292;2023-01-08T14:36:17;2.97;;;1.90;;
65315;SDS011;51920;53.952;10.292;2023-01-08T14:38:44;2.92;;;2.25;;
65315;SDS011;51920;53.952;10.292;2023-01-08T14:41:15;2.88;;;2.50;;
65315;SDS011;51920;53.952;10.292;2023-01-08T14:43:46;3.03;;;2.20;;
65315;SDS011;51920;53.952;10.292;2023-01-08T14:46:18;2.88;;;2.30;;
65315;SDS011;51920;53.952;10.292;2023-01-08T14:48:48;4.07;;;2.50;;
65315;SDS011;51920;53.952;10.292;2023-01-08T14:51:14;4.45;;;3.08;;
65315;SDS011;51920;53.952;10.292;2023-01-08T14:53:48;5.18;;;3.53;;
65315;SDS011;51920;53.952;10.292;2023-01-08T14:56:17;5.10;;;3.70;;
65315;SDS011;51920;53.952;10.292;2023-01-08T14:58:46;4.97;;;3.47;;
65315;SDS011;51920;53.952;10.292;2023-01-08T15:03:47;5.95;;;3.72;;
65315;SDS011;51920;53.952;10.292;2023-01-08T15:06:27;7.85;;;3.75;;
65315;SDS011;51920;53.952;10.292;2023-01-08T15:08:54;7.80;;;3.77;;
65315;SDS011;51920;53.952;10.292;2023-01-08T15:11:23;6.18;;;4.10;;
65315;SDS011;51920;53.952;10.292;2023-01-08T15:13:51;4.70;;;3.67;;
65315;SDS011;51920;53.952;10.292;2023-01-08T15:18:46;5.05;;;3.83;;
65315;SDS011;51920;53.952;10.292;2023-01-08T15:21:16;4.82;;;3.75;;
65315;SDS011;51920;53.952;10.292;2023-01-08T15:23:51;5.18;;;3.70;;
65315;SDS011;51920;53.952;10.292;2023-01-08T15:26:18;4.88;;;3.65;;
65315;SDS011;51920;53.952;10.292;2023-01-08T15:28:50;6.77;;;4.00;;
65315;SDS011;51920;53.952;10.292;2023-01-08T15:34:12;5.13;;;3.70;;
65315;SDS011;51920;53.952;10.292;2023-01-08T15:36:37;7.37;;;3.80;;
65315;SDS011;51920;53.952;10.292;2023-01-08T15:39:03;6.57;;;4.33;;
65315;SDS011;51920;53.952;10.292;2023-01-08T15:41:31;6.35;;;4.95;;
65315;SDS011;51920;53.952;10.292;2023-01-08T15:44:17;8.68;;;4.95;;
65315;SDS011;51920;53.952;10.292;2023-01-08T15:46:43;7.40;;;5.20;;
65315;SDS011;51920;53.952;10.292;2023-01-08T15:49:08;7.90;;;5.32;;
65315;SDS011;51920;53.952;10.292;2023-01-08T15:51:34;10.37;;;6.00;;
65315;SDS011;51920;53.952;10.292;2023-01-08T15:54:04;7.00;;;5.10;;
65315;SDS011;51920;53.952;10.292;2023-01-08T15:56:30;7.97;;;5.07;;
65315;SDS011;51920;53.952;10.292;2023-01-08T15:58:55;9.02;;;4.93;;
65315;SDS011;51920;53.952;10.292;2023-01-08T16:01:20;8.23;;;5.03;;
65315;SDS011;51920;53.952;10.292;2023-01-08T16:03:46;7.27;;;4.90;;
65315;SDS011;51920;53.952;10.292;2023-01-08T16:06:12;7.50;;;4.80;;
65315;SDS011;51920;53.952;10.292;2023-01-08T16:08:37;8.13;;;4.63;;